Aérodrome :
LOGIN :

S'inscrire | Disclaimer

   EN    FR    IT 

 










Légende :    VFR   VFR Marginal   IFR   IFR Intensif   IFR Très Intensif
Visi : 
Plafond : 
>= 8 km
>= 3000ft
5 à 8 km
1000 à 3000 ft
1500m à 5 km
500 à 1000 ft
800 à 1500m
200 à 500 ft
< 800m
< 200 ft
Symboles :   Orages  Brouillard  Fortes neiges  Fortes précipitations  Vent > 20 kt
SIGMETs :   Divers  Orages  Givrage  Turbulence  Onde Orograph.  Cendres Volcan.






- Altitude de l'aérodrome : 364 ft


LFAQ - Albert Bray

DERNIER METAR :
  • 051930Z AUTO 20013KT 0500 0400 R27/0700N FG VV/// 01/01 Q1020

METARs EXPIRÉS :
  • 051900Z AUTO 19009KT 0450 0400 R27/0600D FG VV/// 01/01 Q1021
  • 051830Z AUTO 19009KT 0450 0400 R27/0600N FG VV/// 01/01 Q1021
  • 051800Z AUTO 18010KT 0400 0350 R27/0550N FG VV/// 01/01 Q1021 BECMG 3000 BR OVC003
  • 051730Z AUTO 18009KT 0450 0400 R27/0650N FG VV/// 01/01 Q1021 BECMG 3000 BR OVC003
  • 051700Z AUTO 17010KT 0450 0400 R27/0600N FG VV/// 01/01 Q1021 BECMG 3000 BR OVC003

TAF TAF LFAQ
Valide du 05 à 15h jusqu'au 06 à 00h UTC


051400Z 0515/0524 18010KT 0300 FG VV///
BECMG 0515/0518 3000 BR OVC003



MET'MAP, la Météo Aéronautique d'un coup d'oeil ! - Copyright ORBIFLY Décembre 2007 - Disclaimer

ORBIFLY MET'MAP TEAM :

Programmation & Développement : Alexandra Zaïnal
Sur une idée originale de : Baudouin d'Aumeries
Assistance à la programmation : Marc-Olivier Méhu
Soutien technique & logistique : Manuel Goepfert

Contact : metmap@orbifly.com




SOURCES & CREDITS :

   NOAA